sensor_id;sensor_type;location;lat;lon;timestamp;pressure;altitude;pressure_sealevel;temperature;humidity
19590;BME280;12231;42.782;23.388;2022-12-18T00:00:57;96335.63;;;6.71;100.00
19590;BME280;12231;42.782;23.388;2022-12-18T00:03:22;96340.44;;;6.54;100.00
19590;BME280;12231;42.782;23.388;2022-12-18T00:05:51;96350.03;;;6.48;100.00
19590;BME280;12231;42.782;23.388;2022-12-18T00:08:18;96346.75;;;6.70;100.00
19590;BME280;12231;42.782;23.388;2022-12-18T00:10:44;96357.09;;;6.67;100.00
19590;BME280;12231;42.782;23.388;2022-12-18T00:13:09;96363.97;;;6.65;100.00
19590;BME280;12231;42.782;23.388;2022-12-18T00:15:36;96368.47;;;6.59;100.00
19590;BME280;12231;42.782;23.388;2022-12-18T00:18:02;96363.34;;;6.59;100.00
19590;BME280;12231;42.782;23.388;2022-12-18T00:20:27;96360.22;;;6.49;100.00
19590;BME280;12231;42.782;23.388;2022-12-18T00:22:53;96368.88;;;6.47;100.00
19590;BME280;12231;42.782;23.388;2022-12-18T00:25:20;96381.00;;;6.40;100.00
19590;BME280;12231;42.782;23.388;2022-12-18T00:27:46;96376.22;;;6.30;100.00
19590;BME280;12231;42.782;23.388;2022-12-18T00:30:12;96381.38;;;6.28;100.00
19590;BME280;12231;42.782;23.388;2022-12-18T00:32:37;96379.06;;;6.21;100.00
19590;BME280;12231;42.782;23.388;2022-12-18T00:35:04;96378.81;;;6.28;100.00
19590;BME280;12231;42.782;23.388;2022-12-18T00:37:29;96391.41;;;6.34;100.00
19590;BME280;12231;42.782;23.388;2022-12-18T00:39:55;96387.03;;;6.38;100.00
19590;BME280;12231;42.782;23.388;2022-12-18T00:42:20;96386.19;;;6.39;100.00
19590;BME280;12231;42.782;23.388;2022-12-18T00:45:05;96381.53;;;6.24;100.00
19590;BME280;12231;42.782;23.388;2022-12-18T00:47:30;96385.44;;;6.08;100.00
19590;BME280;12231;42.782;23.388;2022-12-18T00:49:56;96383.66;;;6.10;100.00
19590;BME280;12231;42.782;23.388;2022-12-18T00:52:21;96381.75;;;6.16;100.00
19590;BME280;12231;42.782;23.388;2022-12-18T00:54:47;96384.56;;;6.07;100.00
19590;BME280;12231;42.782;23.388;2022-12-18T00:57:12;96390.50;;;6.09;100.00
19590;BME280;12231;42.782;23.388;2022-12-18T00:59:37;96396.47;;;6.10;100.00
19590;BME280;12231;42.782;23.388;2022-12-18T01:02:03;96388.75;;;6.11;100.00
19590;BME280;12231;42.782;23.388;2022-12-18T01:04:31;96400.94;;;6.02;100.00
19590;BME280;12231;42.782;23.388;2022-12-18T01:06:57;96401.69;;;6.05;100.00
19590;BME280;12231;42.782;23.388;2022-12-18T01:09:23;96398.06;;;6.12;100.00
19590;BME280;12231;42.782;23.388;2022-12-18T01:11:48;96401.56;;;6.10;100.00
19590;BME280;12231;42.782;23.388;2022-12-18T01:14:13;96403.25;;;6.11;100.00
19590;BME280;12231;42.782;23.388;2022-12-18T01:16:39;96400.63;;;6.12;100.00
19590;BME280;12231;42.782;23.388;2022-12-18T01:19:04;96402.69;;;6.01;100.00
19590;BME280;12231;42.782;23.388;2022-12-18T01:21:30;96407.22;;;5.92;100.00
19590;BME280;12231;42.782;23.388;2022-12-18T01:23:56;96412.06;;;6.01;100.00
19590;BME280;12231;42.782;23.388;2022-12-18T01:26:23;96410.72;;;5.88;100.00
19590;BME280;12231;42.782;23.388;2022-12-18T01:28:49;96417.41;;;5.63;100.00
19590;BME280;12231;42.782;23.388;2022-12-18T01:31:25;96418.72;;;5.76;100.00
19590;BME280;12231;42.782;23.388;2022-12-18T01:33:52;96413.53;;;5.79;100.00
19590;BME280;12231;42.782;23.388;2022-12-18T01:36:20;96427.94;;;5.83;100.00
19590;BME280;12231;42.782;23.388;2022-12-18T01:38:47;96417.75;;;5.80;100.00
19590;BME280;12231;42.782;23.388;2022-12-18T01:41:13;96429.66;;;5.81;100.00
19590;BME280;12231;42.782;23.388;2022-12-18T01:43:56;96430.72;;;5.74;100.00
19590;BME280;12231;42.782;23.388;2022-12-18T01:46:24;96437.84;;;5.63;100.00
19590;BME280;12231;42.782;23.388;2022-12-18T01:49:00;96431.94;;;5.60;100.00
19590;BME280;12231;42.782;23.388;2022-12-18T01:51:29;96436.91;;;5.65;100.00
19590;BME280;12231;42.782;23.388;2022-12-18T01:53:56;96435.03;;;5.72;100.00
19590;BME280;12231;42.782;23.388;2022-12-18T01:56:22;96445.22;;;5.73;100.00
19590;BME280;12231;42.782;23.388;2022-12-18T01:59:04;96443.28;;;5.50;100.00
19590;BME280;12231;42.782;23.388;2022-12-18T02:01:31;96444.03;;;5.54;100.00
19590;BME280;12231;42.782;23.388;2022-12-18T02:04:24;96445.78;;;5.52;100.00
19590;BME280;12231;42.782;23.388;2022-12-18T02:06:55;96455.47;;;5.41;100.00
19590;BME280;12231;42.782;23.388;2022-12-18T02:09:29;96453.00;;;5.38;100.00
19590;BME280;12231;42.782;23.388;2022-12-18T02:18:12;96460.69;;;5.36;100.00
19590;BME280;12231;42.782;23.388;2022-12-18T02:20:45;96459.53;;;5.48;100.00
19590;BME280;12231;42.782;23.388;2022-12-18T02:23:39;96465.34;;;5.54;100.00
19590;BME280;12231;42.782;23.388;2022-12-18T02:28:55;96475.59;;;5.19;100.00
19590;BME280;12231;42.782;23.388;2022-12-18T02:31:26;96474.47;;;5.31;100.00
19590;BME280;12231;42.782;23.388;2022-12-18T02:33:55;96484.63;;;5.32;100.00
19590;BME280;12231;42.782;23.388;2022-12-18T02:36:22;96488.97;;;5.29;100.00
19590;BME280;12231;42.782;23.388;2022-12-18T02:38:50;96484.44;;;5.41;100.00
19590;BME280;12231;42.782;23.388;2022-12-18T02:41:17;96484.75;;;5.28;100.00
19590;BME280;12231;42.782;23.388;2022-12-18T02:43:55;96479.44;;;5.35;100.00
19590;BME280;12231;42.782;23.388;2022-12-18T02:48:52;96473.00;;;5.21;100.00
19590;BME280;12231;42.782;23.388;2022-12-18T02:51:32;96479.03;;;5.18;100.00
19590;BME280;12231;42.782;23.388;2022-12-18T02:54:31;96489.19;;;5.21;100.00
19590;BME280;12231;42.782;23.388;2022-12-18T02:57:09;96480.22;;;5.05;100.00
19590;BME280;12231;42.782;23.388;2022-12-18T02:59:45;96494.28;;;4.86;100.00
19590;BME280;12231;42.782;23.388;2022-12-18T03:02:24;96489.03;;;4.92;100.00
19590;BME280;12231;42.782;23.388;2022-12-18T03:05:12;96489.63;;;5.03;100.00
19590;BME280;12231;42.782;23.388;2022-12-18T03:08:01;96480.56;;;4.90;100.00
19590;BME280;12231;42.782;23.388;2022-12-18T03:10:32;96488.41;;;4.83;100.00
19590;BME280;12231;42.782;23.388;2022-12-18T03:13:06;96487.50;;;4.85;100.00
19590;BME280;12231;42.782;23.388;2022-12-18T03:15:47;96494.56;;;4.74;100.00
19590;BME280;12231;42.782;23.388;2022-12-18T03:18:17;96494.41;;;4.80;100.00
19590;BME280;12231;42.782;23.388;2022-12-18T03:20:47;96500.59;;;4.70;100.00
19590;BME280;12231;42.782;23.388;2022-12-18T03:23:18;96506.34;;;4.81;100.00
19590;BME280;12231;42.782;23.388;2022-12-18T03:25:46;96509.63;;;4.85;100.00
19590;BME280;12231;42.782;23.388;2022-12-18T03:28:15;96515.69;;;4.81;100.00
19590;BME280;12231;42.782;23.388;2022-12-18T03:30:44;96521.72;;;4.77;100.00
19590;BME280;12231;42.782;23.388;2022-12-18T03:33:25;96526.75;;;4.81;100.00
19590;BME280;12231;42.782;23.388;2022-12-18T03:35:52;96530.78;;;4.90;100.00
19590;BME280;12231;42.782;23.388;2022-12-18T03:38:18;96544.09;;;4.66;100.00
19590;BME280;12231;42.782;23.388;2022-12-18T03:40:53;96542.28;;;4.71;100.00
19590;BME280;12231;42.782;23.388;2022-12-18T03:44:30;96550.81;;;4.71;100.00
19590;BME280;12231;42.782;23.388;2022-12-18T03:46:28;96546.06;;;4.55;100.00
19590;BME280;12231;42.782;23.388;2022-12-18T03:49:11;96557.72;;;4.66;100.00
19590;BME280;12231;42.782;23.388;2022-12-18T03:52:03;96563.53;;;4.73;100.00
19590;BME280;12231;42.782;23.388;2022-12-18T03:54:31;96564.56;;;4.64;100.00
19590;BME280;12231;42.782;23.388;2022-12-18T03:57:01;96564.94;;;4.46;100.00
19590;BME280;12231;42.782;23.388;2022-12-18T03:59:29;96566.97;;;4.70;100.00
19590;BME280;12231;42.782;23.388;2022-12-18T04:01:56;96568.72;;;4.70;100.00
19590;BME280;12231;42.782;23.388;2022-12-18T04:04:24;96569.06;;;4.53;100.00
19590;BME280;12231;42.782;23.388;2022-12-18T04:06:52;96571.66;;;4.52;100.00
19590;BME280;12231;42.782;23.388;2022-12-18T04:09:19;96574.03;;;4.59;100.00
19590;BME280;12231;42.782;23.388;2022-12-18T04:11:46;96575.03;;;4.51;100.00
19590;BME280;12231;42.782;23.388;2022-12-18T04:14:12;96574.28;;;4.46;100.00
19590;BME280;12231;42.782;23.388;2022-12-18T04:16:38;96583.50;;;4.54;100.00
19590;BME280;12231;42.782;23.388;2022-12-18T04:19:04;96580.31;;;4.43;100.00
19590;BME280;12231;42.782;23.388;2022-12-18T04:21:29;96593.69;;;4.54;100.00
19590;BME280;12231;42.782;23.388;2022-12-18T04:23:55;96593.63;;;4.57;100.00
19590;BME280;12231;42.782;23.388;2022-12-18T04:26:20;96605.88;;;4.42;100.00
19590;BME280;12231;42.782;23.388;2022-12-18T04:28:46;96610.03;;;4.46;100.00
19590;BME280;12231;42.782;23.388;2022-12-18T04:31:12;96604.00;;;4.50;100.00
19590;BME280;12231;42.782;23.388;2022-12-18T04:33:38;96615.06;;;4.50;100.00
19590;BME280;12231;42.782;23.388;2022-12-18T04:36:04;96605.66;;;4.52;100.00
19590;BME280;12231;42.782;23.388;2022-12-18T04:38:29;96610.59;;;4.61;100.00
19590;BME280;12231;42.782;23.388;2022-12-18T04:40:55;96609.47;;;4.32;100.00
19590;BME280;12231;42.782;23.388;2022-12-18T04:43:20;96619.50;;;4.39;100.00
19590;BME280;12231;42.782;23.388;2022-12-18T04:45:46;96623.69;;;4.43;100.00
19590;BME280;12231;42.782;23.388;2022-12-18T04:48:11;96628.78;;;4.45;100.00
19590;BME280;12231;42.782;23.388;2022-12-18T04:50:37;96632.34;;;4.36;100.00
19590;BME280;12231;42.782;23.388;2022-12-18T04:53:02;96637.38;;;4.39;100.00
19590;BME280;12231;42.782;23.388;2022-12-18T04:55:28;96648.28;;;4.49;100.00
19590;BME280;12231;42.782;23.388;2022-12-18T04:57:53;96647.31;;;4.53;100.00
19590;BME280;12231;42.782;23.388;2022-12-18T05:00:19;96654.22;;;4.48;100.00
19590;BME280;12231;42.782;23.388;2022-12-18T05:02:45;96657.50;;;4.54;100.00
19590;BME280;12231;42.782;23.388;2022-12-18T05:05:10;96663.44;;;4.56;100.00
19590;BME280;12231;42.782;23.388;2022-12-18T05:07:36;96659.41;;;4.45;100.00
19590;BME280;12231;42.782;23.388;2022-12-18T05:10:01;96670.56;;;4.38;100.00
19590;BME280;12231;42.782;23.388;2022-12-18T05:12:27;96665.72;;;4.26;100.00
19590;BME280;12231;42.782;23.388;2022-12-18T05:14:52;96670.47;;;4.44;100.00
19590;BME280;12231;42.782;23.388;2022-12-18T05:17:18;96678.94;;;4.47;100.00
19590;BME280;12231;42.782;23.388;2022-12-18T05:19:43;96680.53;;;4.51;100.00
19590;BME280;12231;42.782;23.388;2022-12-18T05:22:09;96682.31;;;4.48;100.00
19590;BME280;12231;42.782;23.388;2022-12-18T05:24:35;96691.69;;;4.47;100.00
19590;BME280;12231;42.782;23.388;2022-12-18T05:27:00;96692.41;;;4.54;100.00
19590;BME280;12231;42.782;23.388;2022-12-18T05:29:26;96689.13;;;4.46;100.00
19590;BME280;12231;42.782;23.388;2022-12-18T05:31:51;96697.47;;;4.57;100.00
19590;BME280;12231;42.782;23.388;2022-12-18T05:34:17;96703.66;;;4.44;100.00
19590;BME280;12231;42.782;23.388;2022-12-18T05:36:42;96705.28;;;4.48;100.00
19590;BME280;12231;42.782;23.388;2022-12-18T05:39:08;96700.53;;;4.28;100.00
19590;BME280;12231;42.782;23.388;2022-12-18T05:41:34;96714.84;;;4.37;100.00
19590;BME280;12231;42.782;23.388;2022-12-18T05:44:00;96713.03;;;4.43;100.00
19590;BME280;12231;42.782;23.388;2022-12-18T05:46:25;96718.28;;;4.34;100.00
19590;BME280;12231;42.782;23.388;2022-12-18T05:48:51;96712.63;;;4.17;100.00
19590;BME280;12231;42.782;23.388;2022-12-18T05:51:18;96725.94;;;4.34;100.00
19590;BME280;12231;42.782;23.388;2022-12-18T05:53:44;96729.41;;;4.30;100.00
19590;BME280;12231;42.782;23.388;2022-12-18T05:56:13;96724.41;;;4.26;100.00
19590;BME280;12231;42.782;23.388;2022-12-18T05:58:39;96734.34;;;4.39;100.00
19590;BME280;12231;42.782;23.388;2022-12-18T06:01:14;96746.66;;;4.16;100.00
19590;BME280;12231;42.782;23.388;2022-12-18T06:03:39;96743.91;;;4.28;100.00
19590;BME280;12231;42.782;23.388;2022-12-18T06:06:13;96745.41;;;4.40;100.00
19590;BME280;12231;42.782;23.388;2022-12-18T06:08:38;96750.56;;;4.37;100.00
19590;BME280;12231;42.782;23.388;2022-12-18T06:11:04;96752.56;;;4.19;100.00
19590;BME280;12231;42.782;23.388;2022-12-18T06:13:29;96755.69;;;4.35;100.00
19590;BME280;12231;42.782;23.388;2022-12-18T06:15:55;96748.13;;;4.31;100.00
19590;BME280;12231;42.782;23.388;2022-12-18T06:18:20;96746.59;;;4.20;100.00
19590;BME280;12231;42.782;23.388;2022-12-18T06:20:54;96742.16;;;4.30;100.00
19590;BME280;12231;42.782;23.388;2022-12-18T06:23:20;96754.91;;;4.32;100.00
19590;BME280;12231;42.782;23.388;2022-12-18T06:25:46;96762.50;;;4.35;100.00
19590;BME280;12231;42.782;23.388;2022-12-18T06:28:11;96760.84;;;4.32;100.00
19590;BME280;12231;42.782;23.388;2022-12-18T06:30:37;96761.59;;;4.39;100.00
19590;BME280;12231;42.782;23.388;2022-12-18T06:33:02;96772.44;;;4.50;100.00
19590;BME280;12231;42.782;23.388;2022-12-18T06:35:27;96773.78;;;4.20;100.00
19590;BME280;12231;42.782;23.388;2022-12-18T06:37:53;96774.00;;;4.08;100.00
19590;BME280;12231;42.782;23.388;2022-12-18T06:40:18;96776.53;;;4.09;100.00
19590;BME280;12231;42.782;23.388;2022-12-18T06:42:44;96773.72;;;4.26;100.00
19590;BME280;12231;42.782;23.388;2022-12-18T06:45:09;96777.16;;;4.22;100.00
19590;BME280;12231;42.782;23.388;2022-12-18T06:47:36;96779.84;;;4.14;100.00
19590;BME280;12231;42.782;23.388;2022-12-18T06:50:03;96787.31;;;4.25;100.00
19590;BME280;12231;42.782;23.388;2022-12-18T06:52:31;96792.28;;;4.34;100.00
19590;BME280;12231;42.782;23.388;2022-12-18T06:54:57;96790.38;;;4.47;100.00
19590;BME280;12231;42.782;23.388;2022-12-18T06:57:22;96794.97;;;4.25;100.00
19590;BME280;12231;42.782;23.388;2022-12-18T06:59:48;96801.69;;;4.31;100.00
19590;BME280;12231;42.782;23.388;2022-12-18T07:02:13;96811.19;;;4.22;100.00
19590;BME280;12231;42.782;23.388;2022-12-18T07:04:39;96810.31;;;4.23;100.00
19590;BME280;12231;42.782;23.388;2022-12-18T07:07:05;96810.16;;;4.34;100.00
19590;BME280;12231;42.782;23.388;2022-12-18T07:09:30;96814.22;;;4.44;100.00
19590;BME280;12231;42.782;23.388;2022-12-18T07:11:55;96813.72;;;4.24;100.00
19590;BME280;12231;42.782;23.388;2022-12-18T07:14:21;96812.00;;;4.23;100.00
19590;BME280;12231;42.782;23.388;2022-12-18T07:16:47;96807.59;;;4.33;100.00
19590;BME280;12231;42.782;23.388;2022-12-18T07:19:12;96807.59;;;4.34;100.00
19590;BME280;12231;42.782;23.388;2022-12-18T07:21:38;96810.75;;;4.48;100.00
19590;BME280;12231;42.782;23.388;2022-12-18T07:24:03;96824.22;;;4.58;100.00
19590;BME280;12231;42.782;23.388;2022-12-18T07:26:29;96815.91;;;4.45;100.00
19590;BME280;12231;42.782;23.388;2022-12-18T07:28:56;96817.47;;;4.52;100.00
19590;BME280;12231;42.782;23.388;2022-12-18T07:31:23;96820.88;;;4.54;100.00
19590;BME280;12231;42.782;23.388;2022-12-18T07:33:50;96828.03;;;4.34;100.00
19590;BME280;12231;42.782;23.388;2022-12-18T07:36:15;96832.25;;;4.35;100.00
19590;BME280;12231;42.782;23.388;2022-12-18T07:38:41;96835.34;;;4.54;100.00
19590;BME280;12231;42.782;23.388;2022-12-18T07:41:10;96842.72;;;4.17;100.00
19590;BME280;12231;42.782;23.388;2022-12-18T07:43:35;96842.75;;;4.15;100.00
19590;BME280;12231;42.782;23.388;2022-12-18T07:46:02;96839.22;;;4.24;100.00
19590;BME280;12231;42.782;23.388;2022-12-18T07:48:28;96846.69;;;4.35;100.00
19590;BME280;12231;42.782;23.388;2022-12-18T07:50:55;96848.44;;;4.31;100.00
19590;BME280;12231;42.782;23.388;2022-12-18T07:53:22;96841.69;;;4.29;100.00
19590;BME280;12231;42.782;23.388;2022-12-18T07:55:48;96849.94;;;4.44;100.00
19590;BME280;12231;42.782;23.388;2022-12-18T07:58:13;96851.47;;;4.01;100.00
19590;BME280;12231;42.782;23.388;2022-12-18T08:00:38;96846.56;;;5.39;100.00
19590;BME280;12231;42.782;23.388;2022-12-18T08:03:04;96852.69;;;5.31;100.00
19590;BME280;12231;42.782;23.388;2022-12-18T08:05:29;96860.09;;;4.99;100.00
19590;BME280;12231;42.782;23.388;2022-12-18T08:07:55;96869.56;;;4.94;100.00
19590;BME280;12231;42.782;23.388;2022-12-18T08:10:21;96857.94;;;4.76;100.00
19590;BME280;12231;42.782;23.388;2022-12-18T08:12:50;96864.88;;;4.70;100.00
19590;BME280;12231;42.782;23.388;2022-12-18T08:15:16;96865.03;;;4.59;100.00
19590;BME280;12231;42.782;23.388;2022-12-18T08:17:41;96875.25;;;4.58;100.00
19590;BME280;12231;42.782;23.388;2022-12-18T08:20:07;96885.59;;;4.50;100.00
19590;BME280;12231;42.782;23.388;2022-12-18T08:22:34;96885.50;;;4.56;100.00
19590;BME280;12231;42.782;23.388;2022-12-18T08:25:01;96895.78;;;4.52;100.00
19590;BME280;12231;42.782;23.388;2022-12-18T08:27:26;96889.06;;;4.46;100.00
19590;BME280;12231;42.782;23.388;2022-12-18T08:29:51;96896.81;;;4.40;100.00
19590;BME280;12231;42.782;23.388;2022-12-18T08:32:17;96896.59;;;4.55;100.00
19590;BME280;12231;42.782;23.388;2022-12-18T08:34:43;96900.13;;;4.45;100.00
19590;BME280;12231;42.782;23.388;2022-12-18T08:37:09;96901.97;;;4.37;100.00
19590;BME280;12231;42.782;23.388;2022-12-18T08:39:34;96894.34;;;4.36;100.00
19590;BME280;12231;42.782;23.388;2022-12-18T08:41:59;96897.44;;;4.54;100.00
19590;BME280;12231;42.782;23.388;2022-12-18T08:44:44;96899.16;;;4.52;100.00
19590;BME280;12231;42.782;23.388;2022-12-18T08:47:09;96904.09;;;4.64;100.00
19590;BME280;12231;42.782;23.388;2022-12-18T08:49:35;96906.50;;;4.72;100.00
19590;BME280;12231;42.782;23.388;2022-12-18T08:52:00;96905.16;;;4.50;100.00
19590;BME280;12231;42.782;23.388;2022-12-18T08:54:28;96910.75;;;4.74;100.00
19590;BME280;12231;42.782;23.388;2022-12-18T08:56:53;96908.09;;;4.79;100.00
19590;BME280;12231;42.782;23.388;2022-12-18T08:59:19;96901.31;;;4.78;100.00
19590;BME280;12231;42.782;23.388;2022-12-18T09:01:45;96904.53;;;5.37;100.00
19590;BME280;12231;42.782;23.388;2022-12-18T09:04:11;96904.47;;;4.93;100.00
19590;BME280;12231;42.782;23.388;2022-12-18T09:06:37;96902.72;;;4.95;100.00
19590;BME280;12231;42.782;23.388;2022-12-18T09:09:04;96907.66;;;5.07;100.00
19590;BME280;12231;42.782;23.388;2022-12-18T09:11:30;96898.16;;;5.12;100.00
19590;BME280;12231;42.782;23.388;2022-12-18T09:13:57;96897.59;;;4.97;100.00
19590;BME280;12231;42.782;23.388;2022-12-18T09:16:23;96901.88;;;4.95;100.00
19590;BME280;12231;42.782;23.388;2022-12-18T09:18:49;96905.38;;;4.91;100.00
19590;BME280;12231;42.782;23.388;2022-12-18T09:21:17;96901.72;;;5.05;100.00
19590;BME280;12231;42.782;23.388;2022-12-18T09:23:43;96909.28;;;5.10;100.00
19590;BME280;12231;42.782;23.388;2022-12-18T09:26:09;96907.63;;;5.09;100.00
19590;BME280;12231;42.782;23.388;2022-12-18T09:28:34;96912.69;;;5.10;100.00
19590;BME280;12231;42.782;23.388;2022-12-18T09:31:05;96908.22;;;5.23;100.00
19590;BME280;12231;42.782;23.388;2022-12-18T09:33:31;96918.56;;;5.15;100.00
19590;BME280;12231;42.782;23.388;2022-12-18T09:35:57;96922.97;;;5.06;100.00
19590;BME280;12231;42.782;23.388;2022-12-18T09:38:22;96921.09;;;5.17;100.00
19590;BME280;12231;42.782;23.388;2022-12-18T09:40:51;96912.09;;;4.95;100.00
19590;BME280;12231;42.782;23.388;2022-12-18T09:43:21;96912.91;;;4.97;100.00
19590;BME280;12231;42.782;23.388;2022-12-18T09:45:55;96919.31;;;5.22;100.00
19590;BME280;12231;42.782;23.388;2022-12-18T09:48:26;96888.84;;;7.40;100.00
19590;BME280;12231;42.782;23.388;2022-12-18T09:50:56;96910.47;;;6.96;100.00
19590;BME280;12231;42.782;23.388;2022-12-18T09:53:26;96910.53;;;6.60;100.00
19590;BME280;12231;42.782;23.388;2022-12-18T09:55:54;96914.47;;;6.36;100.00
19590;BME280;12231;42.782;23.388;2022-12-18T09:58:41;96912.41;;;6.14;100.00
19590;BME280;12231;42.782;23.388;2022-12-18T10:01:23;96922.09;;;6.00;100.00
19590;BME280;12231;42.782;23.388;2022-12-18T10:03:50;96917.44;;;5.76;100.00
19590;BME280;12231;42.782;23.388;2022-12-18T10:06:32;96922.41;;;5.85;100.00
19590;BME280;12231;42.782;23.388;2022-12-18T10:12:00;96904.91;;;5.62;100.00
19590;BME280;12231;42.782;23.388;2022-12-18T10:15:05;96917.56;;;5.68;100.00
19590;BME280;12231;42.782;23.388;2022-12-18T10:20:52;96907.28;;;5.28;100.00
19590;BME280;12231;42.782;23.388;2022-12-18T10:23:39;96917.22;;;5.42;100.00
19590;BME280;12231;42.782;23.388;2022-12-18T10:26:10;96913.53;;;5.56;100.00
19590;BME280;12231;42.782;23.388;2022-12-18T10:28:38;96915.69;;;5.32;100.00
19590;BME280;12231;42.782;23.388;2022-12-18T10:31:16;96911.91;;;5.52;100.00
19590;BME280;12231;42.782;23.388;2022-12-18T10:33:43;96909.25;;;5.58;100.00
19590;BME280;12231;42.782;23.388;2022-12-18T10:36:09;96904.03;;;5.63;100.00
19590;BME280;12231;42.782;23.388;2022-12-18T10:38:35;96908.75;;;5.84;100.00
19590;BME280;12231;42.782;23.388;2022-12-18T10:43:35;96909.34;;;5.54;100.00
19590;BME280;12231;42.782;23.388;2022-12-18T10:48:53;96903.50;;;5.92;100.00
19590;BME280;12231;42.782;23.388;2022-12-18T10:51:29;96897.59;;;5.88;100.00
19590;BME280;12231;42.782;23.388;2022-12-18T10:53:59;96899.75;;;5.65;100.00
19590;BME280;12231;42.782;23.388;2022-12-18T10:56:27;96896.00;;;5.83;100.00
19590;BME280;12231;42.782;23.388;2022-12-18T10:59:00;96905.03;;;5.99;100.00
19590;BME280;12231;42.782;23.388;2022-12-18T11:01:27;96894.94;;;6.32;100.00
19590;BME280;12231;42.782;23.388;2022-12-18T11:06:21;96891.75;;;6.21;100.00
19590;BME280;12231;42.782;23.388;2022-12-18T11:09:17;96901.81;;;6.30;100.00
19590;BME280;12231;42.782;23.388;2022-12-18T11:11:49;96902.91;;;6.19;100.00
19590;BME280;12231;42.782;23.388;2022-12-18T11:14:31;96900.00;;;6.35;100.00
19590;BME280;12231;42.782;23.388;2022-12-18T11:16:59;96905.53;;;6.54;100.00
19590;BME280;12231;42.782;23.388;2022-12-18T11:19:37;96898.47;;;6.65;100.00
19590;BME280;12231;42.782;23.388;2022-12-18T11:22:26;96909.59;;;6.26;100.00
19590;BME280;12231;42.782;23.388;2022-12-18T11:27:28;96908.78;;;6.97;100.00
19590;BME280;12231;42.782;23.388;2022-12-18T11:30:09;96911.41;;;6.94;100.00
19590;BME280;12231;42.782;23.388;2022-12-18T11:32:39;96921.75;;;6.91;100.00
19590;BME280;12231;42.782;23.388;2022-12-18T11:37:41;96914.53;;;7.69;100.00
19590;BME280;12231;42.782;23.388;2022-12-18T11:40:16;96918.94;;;7.34;100.00
19590;BME280;12231;42.782;23.388;2022-12-18T11:43:05;96912.25;;;7.28;100.00
19590;BME280;12231;42.782;23.388;2022-12-18T11:45:35;96909.63;;;6.97;100.00
19590;BME280;12231;42.782;23.388;2022-12-18T11:48:38;96913.41;;;6.81;100.00
19590;BME280;12231;42.782;23.388;2022-12-18T11:51:05;96913.16;;;6.92;100.00
19590;BME280;12231;42.782;23.388;2022-12-18T11:53:35;96918.16;;;6.96;100.00
19590;BME280;12231;42.782;23.388;2022-12-18T12:07:23;96914.03;;;6.56;100.00
19590;BME280;12231;42.782;23.388;2022-12-18T12:10:57;96909.44;;;6.68;100.00
19590;BME280;12231;42.782;23.388;2022-12-18T12:21:46;96908.47;;;6.74;100.00
19590;BME280;12231;42.782;23.388;2022-12-18T12:24:27;96910.03;;;6.81;100.00
19590;BME280;12231;42.782;23.388;2022-12-18T12:30:10;96925.31;;;6.84;100.00
19590;BME280;12231;42.782;23.388;2022-12-18T12:32:48;96929.75;;;6.77;100.00
19590;BME280;12231;42.782;23.388;2022-12-18T12:37:54;96926.63;;;6.65;100.00
19590;BME280;12231;42.782;23.388;2022-12-18T12:40:27;96924.19;;;6.59;100.00
19590;BME280;12231;42.782;23.388;2022-12-18T12:42:56;96928.19;;;6.70;100.00
19590;BME280;12231;42.782;23.388;2022-12-18T12:51:00;96921.91;;;6.83;100.00
19590;BME280;12231;42.782;23.388;2022-12-18T12:53:37;96914.66;;;7.01;100.00
19590;BME280;12231;42.782;23.388;2022-12-18T12:56:04;96922.50;;;6.58;100.00
19590;BME280;12231;42.782;23.388;2022-12-18T12:58:51;96918.25;;;6.93;100.00
19590;BME280;12231;42.782;23.388;2022-12-18T13:01:25;96924.75;;;7.07;100.00
19590;BME280;12231;42.782;23.388;2022-12-18T13:06:29;96929.59;;;6.83;100.00
19590;BME280;12231;42.782;23.388;2022-12-18T13:09:00;96938.72;;;6.95;100.00
19590;BME280;12231;42.782;23.388;2022-12-18T13:11:38;96947.22;;;6.97;100.00
19590;BME280;12231;42.782;23.388;2022-12-18T13:20:12;96964.13;;;6.29;100.00
19590;BME280;12231;42.782;23.388;2022-12-18T13:22:48;96963.94;;;6.38;100.00
19590;BME280;12231;42.782;23.388;2022-12-18T13:28:00;96972.66;;;6.28;100.00
19590;BME280;12231;42.782;23.388;2022-12-18T13:38:33;96977.50;;;6.01;100.00
19590;BME280;12231;42.782;23.388;2022-12-18T13:44:11;96979.16;;;6.02;100.00
19590;BME280;12231;42.782;23.388;2022-12-18T13:46:45;96979.97;;;6.05;100.00
19590;BME280;12231;42.782;23.388;2022-12-18T13:51:57;96981.66;;;6.46;100.00
19590;BME280;12231;42.782;23.388;2022-12-18T13:54:32;96991.41;;;6.30;100.00
19590;BME280;12231;42.782;23.388;2022-12-18T13:56:58;96993.31;;;6.21;100.00
19590;BME280;12231;42.782;23.388;2022-12-18T13:59:26;96994.78;;;5.90;100.00
19590;BME280;12231;42.782;23.388;2022-12-18T14:01:54;97001.50;;;5.95;100.00
19590;BME280;12231;42.782;23.388;2022-12-18T14:04:27;96990.41;;;5.95;100.00
19590;BME280;12231;42.782;23.388;2022-12-18T14:07:17;96999.94;;;5.88;100.00
19590;BME280;12231;42.782;23.388;2022-12-18T14:09:47;97005.16;;;5.82;100.00
19590;BME280;12231;42.782;23.388;2022-12-18T14:12:31;97005.38;;;5.69;100.00
19590;BME280;12231;42.782;23.388;2022-12-18T14:20:44;96988.66;;;7.81;100.00
19590;BME280;12231;42.782;23.388;2022-12-18T14:23:29;97009.56;;;6.59;100.00
19590;BME280;12231;42.782;23.388;2022-12-18T14:25:55;97012.78;;;6.67;99.48
19590;BME280;12231;42.782;23.388;2022-12-18T14:28:20;97013.50;;;6.36;100.00
19590;BME280;12231;42.782;23.388;2022-12-18T14:30:49;97013.19;;;6.07;100.00
19590;BME280;12231;42.782;23.388;2022-12-18T14:33:18;97017.88;;;5.87;100.00
19590;BME280;12231;42.782;23.388;2022-12-18T14:38:38;97018.16;;;5.69;100.00